Time;durP1;ratioP1;P1;durP2;ratioP2;P2;SDS_P1;SDS_P2;PMS_P1;PMS_P2;Temp;Humidity;BMP_temperature;BMP_pressure;BME280_temperature;BME280_humidity;BME280_pressure;Samples;Min_cycle;Max_cycle;Signal;HPM_P1;HPM_P2
2023/03/25 00:00:21;;;;;;;9.70;2.10;;;10.50;99.90;;;;;;5054834;28;20055;-73
2023/03/25 00:02:49;;;;;;;11.68;2.90;;;10.50;99.90;;;;;;5080657;28;20044;-73
2023/03/25 00:05:18;;;;;;;10.65;2.50;;;10.50;99.90;;;;;;5082727;28;20044;-73
2023/03/25 00:07:45;;;;;;;10.57;2.30;;;10.50;99.90;;;;;;5082825;28;20036;-72
2023/03/25 00:10:12;;;;;;;11.95;2.25;;;10.50;99.90;;;;;;5091611;28;20043;-72
2023/03/25 00:12:39;;;;;;;10.98;2.22;;;10.40;99.90;;;;;;5087030;28;20387;-72
2023/03/25 00:15:06;;;;;;;15.93;2.65;;;10.50;99.90;;;;;;5071434;28;20514;-72
2023/03/25 00:17:32;;;;;;;12.07;2.58;;;10.50;99.90;;;;;;5057598;28;20043;-71
2023/03/25 00:19:59;;;;;;;12.55;2.28;;;10.50;99.90;;;;;;5090586;28;20415;-72
2023/03/25 00:22:26;;;;;;;12.52;2.30;;;10.40;99.90;;;;;;5073891;28;20761;-72
2023/03/25 00:24:52;;;;;;;11.95;2.33;;;10.40;99.90;;;;;;5068997;28;20119;-72
2023/03/25 00:27:18;;;;;;;8.45;1.90;;;10.40;99.90;;;;;;5054366;28;20189;-72
2023/03/25 00:29:44;;;;;;;8.65;2.00;;;10.40;99.90;;;;;;5087695;28;20051;-72
2023/03/25 00:32:11;;;;;;;12.88;2.40;;;10.20;99.90;;;;;;5070047;28;20071;-72
2023/03/25 00:34:45;;;;;;;11.85;2.05;;;10.10;99.90;;;;;;5085113;28;20089;-72
2023/03/25 00:37:16;;;;;;;11.77;2.00;;;10.00;99.90;;;;;;5084486;28;20043;-72
2023/03/25 00:39:43;;;;;;;13.63;2.38;;;10.00;99.90;;;;;;5072200;28;20107;-71
2023/03/25 00:42:10;;;;;;;11.77;2.67;;;10.00;99.90;;;;;;5085126;28;20056;-71
2023/03/25 00:44:36;;;;;;;8.32;1.75;;;10.00;99.90;;;;;;5073071;28;20055;-71
2023/03/25 00:47:01;;;;;;;18.83;2.80;;;10.00;99.90;;;;;;5091206;28;20052;-72
2023/03/25 00:49:27;;;;;;;10.25;1.90;;;10.00;99.90;;;;;;5077637;28;20113;-72
2023/03/25 00:51:57;;;;;;;10.43;2.25;;;10.00;99.90;;;;;;5083700;28;20101;-72
2023/03/25 00:54:23;;;;;;;14.70;2.10;;;10.00;99.90;;;;;;5075857;28;20075;-72
2023/03/25 00:56:51;;;;;;;10.25;2.10;;;10.00;99.90;;;;;;5055274;28;20051;-72
2023/03/25 00:59:16;;;;;;;16.05;2.42;;;9.90;99.90;;;;;;5081694;28;20048;-72
2023/03/25 01:01:44;;;;;;;15.00;3.00;;;9.80;99.90;;;;;;5082160;28;20484;-72
2023/03/25 01:04:11;;;;;;;14.02;2.35;;;9.80;99.90;;;;;;5070003;28;20048;-72
2023/03/25 01:06:45;;;;;;;12.25;2.50;;;9.80;99.90;;;;;;5072974;28;20542;-72
2023/03/25 01:09:13;;;;;;;11.75;2.40;;;9.80;99.90;;;;;;5080608;28;20044;-72
2023/03/25 01:11:40;;;;;;;13.60;2.35;;;9.70;99.90;;;;;;5070538;28;20127;-73
2023/03/25 01:14:17;;;;;;;13.73;2.42;;;9.70;99.90;;;;;;5056948;28;20048;-72
2023/03/25 01:16:42;;;;;;;;;;;9.60;99.90;;;;;;5089106;28;20059;-71
2023/03/25 01:19:09;;;;;;;15.23;2.70;;;9.50;99.90;;;;;;5079491;28;20319;-72
2023/03/25 01:21:35;;;;;;;14.63;2.90;;;9.50;99.90;;;;;;5088347;28;20052;-71
2023/03/25 01:24:06;;;;;;;14.95;2.90;;;9.50;99.90;;;;;;5057516;28;20071;-72
2023/03/25 01:26:31;;;;;;;13.05;2.33;;;9.50;99.90;;;;;;5085105;28;20040;-72
2023/03/25 01:28:57;;;;;;;13.13;2.45;;;9.50;99.90;;;;;;5078736;28;20131;-71
2023/03/25 01:31:24;;;;;;;18.10;3.10;;;9.50;99.90;;;;;;5088517;28;20147;-70
2023/03/25 01:33:51;;;;;;;17.35;3.08;;;9.40;99.90;;;;;;5057130;28;20036;-72
2023/03/25 01:36:16;;;;;;;19.67;3.28;;;9.50;99.90;;;;;;5083823;28;20050;-71
2023/03/25 01:38:42;;;;;;;20.17;2.80;;;9.40;99.90;;;;;;5073407;28;20040;-71
2023/03/25 01:41:09;;;;;;;16.52;2.95;;;9.40;99.90;;;;;;5089129;28;20055;-72
2023/03/25 01:43:35;;;;;;;14.82;3.10;;;9.40;99.90;;;;;;5085208;28;20055;-71
2023/03/25 01:46:01;;;;;;;17.08;2.80;;;9.40;99.90;;;;;;5059333;28;20040;-72
2023/03/25 01:48:34;;;;;;;16.00;2.85;;;9.30;99.90;;;;;;5079013;28;20174;-72
2023/03/25 01:51:17;;;;;;;16.13;3.17;;;9.40;99.90;;;;;;5065423;28;20415;-71
2023/03/25 01:53:43;;;;;;;18.45;3.20;;;9.30;99.90;;;;;;5094746;28;20035;-71
2023/03/25 01:56:12;;;;;;;;;;;9.30;99.90;;;;;;5078637;28;20052;-71
2023/03/25 01:58:38;;;;;;;19.63;3.40;;;9.30;99.90;;;;;;5093274;28;19920;-71
2023/03/25 02:01:05;;;;;;;13.52;2.65;;;9.20;99.90;;;;;;5062278;28;20075;-71
2023/03/25 02:03:35;;;;;;;19.17;3.65;;;9.20;99.90;;;;;;5062247;28;20059;-71
2023/03/25 02:06:06;;;;;;;14.38;2.75;;;9.20;99.90;;;;;;5060682;28;20045;-71
2023/03/25 02:08:36;;;;;;;14.32;2.90;;;9.20;99.90;;;;;;5085132;28;20097;-71
2023/03/25 02:11:03;;;;;;;20.92;3.05;;;9.20;99.90;;;;;;5096019;28;20127;-71
2023/03/25 02:13:29;;;;;;;23.80;4.53;;;9.20;99.90;;;;;;5096443;28;20036;-71
2023/03/25 02:16:13;;;;;;;16.17;3.38;;;9.20;99.90;;;;;;5079272;28;20044;-71
2023/03/25 02:19:34;;;;;;;19.63;3.83;;;9.20;99.90;;;;;;5076649;28;20053;-71
2023/03/25 02:22:24;;;;;;;21.27;3.40;;;9.30;99.90;;;;;;5055076;28;20059;-72
2023/03/25 02:25:00;;;;;;;17.13;3.47;;;9.30;99.90;;;;;;5077166;28;20403;-71
2023/03/25 02:27:50;;;;;;;20.88;3.95;;;9.30;99.90;;;;;;5076316;28;20044;-71
2023/03/25 02:30:37;;;;;;;23.27;3.42;;;9.40;99.90;;;;;;5084012;28;20044;-71
2023/03/25 02:33:50;;;;;;;21.70;4.10;;;9.40;99.90;;;;;;5096286;28;20076;-71
2023/03/25 02:36:48;;;;;;;16.48;3.17;;;9.40;99.90;;;;;;5076323;28;20286;-71
2023/03/25 02:39:43;;;;;;;24.65;3.75;;;9.40;99.90;;;;;;5078231;28;20177;-72
2023/03/25 02:42:31;;;;;;;18.92;3.80;;;9.50;99.90;;;;;;5080918;28;20071;-72
2023/03/25 02:45:02;;;;;;;20.48;3.40;;;9.50;99.90;;;;;;5090782;28;20036;-72
2023/03/25 02:47:35;;;;;;;19.92;3.97;;;9.50;99.90;;;;;;5076054;28;20130;-71
2023/03/25 02:50:14;;;;;;;22.70;3.70;;;9.50;99.90;;;;;;5076047;28;20131;-72
2023/03/25 02:52:48;;;;;;;13.57;2.97;;;9.50;99.90;;;;;;5060373;28;20055;-72
2023/03/25 02:55:17;;;;;;;26.35;3.85;;;9.50;99.90;;;;;;5086368;28;20135;-71
2023/03/25 02:57:46;;;;;;;24.38;4.15;;;9.50;99.90;;;;;;5090754;28;20047;-72
2023/03/25 03:00:16;;;;;;;24.33;4.50;;;9.50;99.90;;;;;;5081015;28;20083;-72
2023/03/25 03:03:00;;;;;;;18.30;3.47;;;9.60;99.90;;;;;;5092367;28;20044;-71
2023/03/25 03:05:32;;;;;;;19.65;3.78;;;9.50;99.90;;;;;;5084217;28;20041;-71
2023/03/25 03:08:22;;;;;;;17.73;3.47;;;9.60;99.90;;;;;;5087082;28;20136;-71
2023/03/25 03:10:53;;;;;;;23.60;4.10;;;9.50;99.90;;;;;;5091505;28;20069;-71
2023/03/25 03:13:50;;;;;;;18.77;3.50;;;9.50;99.90;;;;;;5092093;28;20040;-71
2023/03/25 03:16:24;;;;;;;19.73;3.65;;;9.60;99.90;;;;;;5090612;28;20052;-71
2023/03/25 03:18:57;;;;;;;21.23;3.47;;;9.60;99.90;;;;;;5092474;28;20044;-71
2023/03/25 03:21:50;;;;;;;21.88;3.60;;;9.60;99.90;;;;;;5078819;28;20045;-71
2023/03/25 03:24:37;;;;;;;22.45;3.20;;;9.60;99.90;;;;;;5073764;28;20044;-72
2023/03/25 03:27:32;;;;;;;21.33;3.20;;;9.50;99.90;;;;;;5060731;28;20487;-71
2023/03/25 03:30:05;;;;;;;23.27;3.22;;;9.60;99.90;;;;;;5090944;28;20178;-71
2023/03/25 03:32:48;;;;;;;21.50;3.95;;;9.60;99.90;;;;;;5071850;28;20115;-72
2023/03/25 03:35:48;;;;;;;18.52;3.13;;;9.70;99.90;;;;;;5078717;28;20071;-72
2023/03/25 03:38:15;;;;;;;18.38;3.20;;;9.70;99.90;;;;;;5071834;28;20514;-72
2023/03/25 03:40:46;;;;;;;12.48;3.10;;;9.60;99.90;;;;;;5076954;28;20047;-72
2023/03/25 03:43:23;;;;;;;12.48;2.70;;;9.60;99.90;;;;;;5092072;28;20510;-72
2023/03/25 03:45:54;;;;;;;15.35;3.22;;;9.60;99.90;;;;;;5081603;28;20483;-72
2023/03/25 03:48:37;;;;;;;16.00;3.45;;;9.50;99.90;;;;;;5091775;28;20054;-72
2023/03/25 03:51:18;;;;;;;15.65;2.70;;;9.50;99.90;;;;;;5089070;28;20060;-72
2023/03/25 03:53:59;;;;;;;18.08;3.78;;;9.50;99.90;;;;;;5092051;28;20056;-72
2023/03/25 03:56:27;;;;;;;17.08;2.83;;;9.50;99.90;;;;;;5064717;28;20474;-72
2023/03/25 03:58:58;;;;;;;20.15;3.47;;;9.40;99.90;;;;;;5071733;28;20118;-72
2023/03/25 04:01:32;;;;;;;15.57;2.95;;;9.40;99.90;;;;;;5071802;28;20139;-71
2023/03/25 04:04:09;;;;;;;21.38;3.20;;;9.40;99.90;;;;;;5071435;28;20056;-71
2023/03/25 04:06:40;;;;;;;;;;;9.40;99.90;;;;;;5082277;28;20068;-71
2023/03/25 04:09:39;;;;;;;22.73;3.58;;;9.40;99.90;;;;;;5070998;28;19961;-71
2023/03/25 04:12:17;;;;;;;25.38;3.50;;;9.40;99.90;;;;;;5071040;28;20048;-72
2023/03/25 04:14:43;;;;;;;19.60;3.45;;;9.30;99.90;;;;;;5076996;28;20361;-72
2023/03/25 04:17:09;;;;;;;;;;;9.30;99.90;;;;;;5078758;28;20075;-72
2023/03/25 04:19:35;;;;;;;14.50;3.15;;;9.30;99.90;;;;;;5083999;28;20008;-72
2023/03/25 04:22:02;;;;;;;18.33;2.90;;;9.30;99.90;;;;;;5079325;28;20048;-71
2023/03/25 04:24:31;;;;;;;18.83;4.05;;;9.30;99.90;;;;;;5074049;28;20039;-71
2023/03/25 04:27:02;;;;;;;17.65;3.25;;;9.30;99.90;;;;;;5089688;28;20129;-72
2023/03/25 04:29:28;;;;;;;22.90;3.63;;;9.40;99.90;;;;;;5080413;28;20072;-72
2023/03/25 04:31:55;;;;;;;17.67;3.50;;;9.40;99.90;;;;;;5070530;28;20047;-71
2023/03/25 04:34:21;;;;;;;20.67;3.60;;;9.40;99.90;;;;;;5069555;28;20048;-71
2023/03/25 04:36:49;;;;;;;19.52;3.60;;;9.40;99.90;;;;;;5083371;28;20075;-72
2023/03/25 04:39:17;;;;;;;17.65;3.20;;;9.50;99.90;;;;;;5070637;28;20392;-72
2023/03/25 04:41:43;;;;;;;16.08;3.08;;;9.50;99.90;;;;;;5058402;28;20082;-72
2023/03/25 04:44:10;;;;;;;15.70;3.50;;;9.40;99.90;;;;;;5071167;28;20040;-71
2023/03/25 04:46:37;;;;;;;22.58;3.95;;;9.40;99.90;;;;;;5073153;28;20044;-71
2023/03/25 04:49:12;;;;;;;23.10;3.88;;;9.40;99.90;;;;;;5090077;28;20036;-71
2023/03/25 04:51:43;;;;;;;20.02;3.40;;;9.40;99.90;;;;;;5070553;28;20056;-71
2023/03/25 04:54:10;;;;;;;17.65;3.10;;;9.30;99.90;;;;;;5072194;28;20110;-72
2023/03/25 04:56:38;;;;;;;21.95;4.13;;;9.30;99.90;;;;;;5088635;28;20218;-71
2023/03/25 04:59:04;;;;;;;18.92;3.60;;;9.30;99.90;;;;;;5053609;28;20051;-72
2023/03/25 05:01:30;;;;;;;19.70;3.65;;;9.30;99.90;;;;;;5070335;28;20344;-71
2023/03/25 05:04:06;;;;;;;19.95;3.65;;;9.40;99.90;;;;;;5089945;28;20180;-71
2023/03/25 05:06:33;;;;;;;18.30;3.47;;;9.40;99.90;;;;;;5071267;28;20054;-72
2023/03/25 05:09:03;;;;;;;16.80;3.30;;;9.40;99.90;;;;;;5085818;28;20075;-71
2023/03/25 05:11:30;;;;;;;18.92;3.47;;;9.40;99.90;;;;;;5070101;28;20055;-72
2023/03/25 05:13:56;;;;;;;16.58;3.30;;;9.40;99.90;;;;;;5089144;28;20032;-72
2023/03/25 05:16:22;;;;;;;16.17;3.47;;;9.40;99.90;;;;;;5070174;28;20121;-72
2023/03/25 05:18:48;;;;;;;17.10;3.00;;;9.40;99.90;;;;;;5070847;28;20052;-72
2023/03/25 05:21:14;;;;;;;18.58;3.58;;;9.50;99.90;;;;;;5090339;28;20048;-72
2023/03/25 05:23:40;;;;;;;20.00;3.88;;;9.50;99.90;;;;;;5081956;28;20379;-72
2023/03/25 05:26:07;;;;;;;;;;;9.60;99.90;;;;;;5085921;28;20047;-72
2023/03/25 05:28:32;;;;;;;22.52;3.63;;;9.50;99.90;;;;;;5086957;28;19916;-72
2023/03/25 05:30:58;;;;;;;20.67;3.50;;;9.50;99.90;;;;;;5053240;28;20040;-72
2023/03/25 05:33:24;;;;;;;20.48;3.55;;;9.50;99.90;;;;;;5083834;28;20109;-72
2023/03/25 05:35:49;;;;;;;20.08;3.80;;;9.50;99.90;;;;;;5089510;28;20079;-72
2023/03/25 05:38:17;;;;;;;25.77;4.55;;;9.60;99.90;;;;;;5079344;28;20052;-72
2023/03/25 05:40:47;;;;;;;17.65;3.72;;;9.50;99.90;;;;;;5053690;28;20391;-72
2023/03/25 05:43:21;;;;;;;20.88;3.80;;;9.60;99.90;;;;;;5077041;28;20142;-72
2023/03/25 05:45:48;;;;;;;17.20;3.40;;;9.50;99.90;;;;;;5063077;28;20420;-72
2023/03/25 05:48:14;;;;;;;20.17;3.75;;;9.50;99.90;;;;;;5082139;28;20165;-73
2023/03/25 05:50:42;;;;;;;20.85;4.05;;;9.50;99.90;;;;;;5069828;28;20537;-72
2023/03/25 05:53:14;;;;;;;16.33;3.13;;;9.50;99.90;;;;;;5071105;28;20049;-73
2023/03/25 05:55:40;;;;;;;19.33;3.70;;;9.50;99.90;;;;;;5073358;28;20294;-75
2023/03/25 05:58:06;;;;;;;22.98;4.38;;;9.50;99.90;;;;;;5058624;28;20491;-72
2023/03/25 06:00:31;;;;;;;19.83;3.80;;;9.50;99.90;;;;;;5081244;28;20049;-72
2023/03/25 06:03:00;;;;;;;18.00;3.75;;;9.50;99.90;;;;;;5078438;28;20132;-72
2023/03/25 06:05:28;;;;;;;19.67;3.78;;;9.50;99.90;;;;;;5078324;28;20051;-72
2023/03/25 06:07:56;;;;;;;19.40;4.13;;;9.50;99.90;;;;;;5064117;28;20148;-74
2023/03/25 06:10:22;;;;;;;18.05;3.40;;;9.50;99.90;;;;;;5072660;28;20076;-76
2023/03/25 06:12:48;;;;;;;20.92;3.80;;;9.60;99.90;;;;;;5075682;28;20134;-76
2023/03/25 06:15:27;;;;;;;19.13;4.15;;;9.60;99.90;;;;;;5077555;28;20063;-75
2023/03/25 06:17:56;;;;;;;18.60;3.78;;;9.60;99.90;;;;;;5080369;28;20114;-75
2023/03/25 06:20:22;;;;;;;22.77;4.22;;;9.50;99.90;;;;;;5059902;28;20036;-74
2023/03/25 06:22:47;;;;;;;19.45;3.78;;;9.50;99.90;;;;;;5081640;28;20039;-73
2023/03/25 06:25:19;;;;;;;24.70;4.05;;;9.60;99.90;;;;;;5082114;28;20040;-74
2023/03/25 06:27:48;;;;;;;23.52;4.03;;;9.60;99.90;;;;;;5084035;28;20040;-73
2023/03/25 06:30:16;;;;;;;21.08;3.72;;;9.60;99.90;;;;;;5071750;28;20058;-73
2023/03/25 06:32:42;;;;;;;20.70;3.65;;;9.60;99.90;;;;;;5074953;28;20139;-72
2023/03/25 06:35:10;;;;;;;24.48;5.03;;;9.60;99.90;;;;;;5081903;28;20105;-71
2023/03/25 06:37:37;;;;;;;22.38;3.80;;;9.60;99.90;;;;;;5092131;28;20050;-72
2023/03/25 06:40:05;;;;;;;21.23;3.70;;;9.40;99.90;;;;;;5086749;28;20459;-70
2023/03/25 06:42:30;;;;;;;19.70;3.75;;;9.30;99.90;;;;;;5073263;28;20505;-71
2023/03/25 06:44:56;;;;;;;17.17;3.75;;;9.30;99.90;;;;;;5079878;28;20044;-72
2023/03/25 06:47:22;;;;;;;21.23;4.43;;;9.20;99.90;;;;;;5073984;28;20105;-71
2023/03/25 06:49:48;;;;;;;17.63;3.90;;;9.30;99.90;;;;;;5083260;28;20056;-70
2023/03/25 06:52:14;;;;;;;;;;;9.30;99.90;;;;;;5056122;28;20051;-69
2023/03/25 06:54:40;;;;;;;22.02;3.67;;;9.30;99.90;;;;;;5062926;28;19920;-70
2023/03/25 06:57:06;;;;;;;20.58;3.15;;;9.40;99.90;;;;;;5073418;28;20625;-70
2023/03/25 06:59:32;;;;;;;19.50;3.53;;;9.50;99.90;;;;;;5083300;28;20822;-70
2023/03/25 07:01:58;;;;;;;20.55;3.50;;;9.50;99.90;;;;;;5077948;28;20123;-70
2023/03/25 07:04:24;;;;;;;20.13;3.08;;;9.60;99.90;;;;;;5074777;28;20480;-70
2023/03/25 07:06:50;;;;;;;21.80;3.40;;;9.60;99.90;;;;;;5074738;28;20052;-70
2023/03/25 07:09:16;;;;;;;21.02;3.13;;;9.70;99.90;;;;;;5071753;28;20048;-69
2023/03/25 07:11:42;;;;;;;13.02;3.10;;;9.70;99.90;;;;;;5055636;28;20078;-70
2023/03/25 07:14:08;;;;;;;18.52;3.08;;;9.70;99.90;;;;;;5059494;28;20051;-70
2023/03/25 07:16:34;;;;;;;17.00;3.25;;;9.80;99.90;;;;;;5092272;28;20044;-70
2023/03/25 07:18:59;;;;;;;16.60;3.40;;;9.90;99.90;;;;;;5064300;28;20422;-71
2023/03/25 07:21:25;;;;;;;24.92;3.65;;;9.90;99.90;;;;;;5089709;28;20093;-70
2023/03/25 07:23:52;;;;;;;18.10;3.65;;;9.80;99.90;;;;;;5081931;28;20125;-70
2023/03/25 07:26:17;;;;;;;;;;;9.80;99.90;;;;;;5077310;28;20083;-70
2023/03/25 07:28:44;;;;;;;13.02;2.50;;;9.50;99.90;;;;;;5079330;28;20415;-70
2023/03/25 07:31:10;;;;;;;;;;;9.40;99.90;;;;;;5092655;28;20039;-73
2023/03/25 07:33:37;;;;;;;13.63;2.75;;;9.40;99.90;;;;;;5069092;28;19921;-73
2023/03/25 07:36:05;;;;;;;13.73;2.70;;;9.40;99.90;;;;;;5058123;28;20048;-73
2023/03/25 07:38:30;;;;;;;15.35;3.33;;;9.40;99.90;;;;;;5060865;28;20078;-73
2023/03/25 07:40:56;;;;;;;21.35;3.97;;;9.30;99.90;;;;;;5078635;28;20071;-74
2023/03/25 07:43:22;;;;;;;22.45;3.72;;;9.30;99.90;;;;;;5075566;28;20070;-74
2023/03/25 07:45:47;;;;;;;14.60;2.72;;;9.30;99.90;;;;;;5078723;28;20036;-73
2023/03/25 07:48:15;;;;;;;16.83;3.03;;;9.30;99.90;;;;;;5084270;28;20047;-73
2023/03/25 07:50:42;;;;;;;14.32;3.33;;;9.30;99.90;;;;;;5070911;28;20136;-72
2023/03/25 07:53:08;;;;;;;14.50;2.63;;;9.10;99.90;;;;;;5084948;28;20105;-73
2023/03/25 07:55:34;;;;;;;17.38;2.90;;;9.00;99.90;;;;;;5046596;28;20036;-72
2023/03/25 07:58:01;;;;;;;11.63;2.03;;;9.00;99.90;;;;;;5071196;28;20101;-73
2023/03/25 08:00:28;;;;;;;14.73;2.47;;;9.00;99.90;;;;;;5079644;28;20078;-72
2023/03/25 08:02:54;;;;;;;17.52;2.67;;;9.00;99.90;;;;;;5090970;28;20063;-71
2023/03/25 08:05:20;;;;;;;10.07;1.98;;;9.10;99.90;;;;;;5064505;28;20083;-72
2023/03/25 08:07:47;;;;;;;13.25;2.47;;;9.20;99.90;;;;;;5076722;28;20070;-72
2023/03/25 08:10:14;;;;;;;15.98;3.10;;;9.10;99.90;;;;;;5059080;28;20471;-72
2023/03/25 08:12:40;;;;;;;15.82;2.47;;;9.10;99.90;;;;;;5077274;28;20533;-73
2023/03/25 08:15:07;;;;;;;12.07;2.25;;;9.10;99.90;;;;;;5078788;28;20064;-72
2023/03/25 08:17:33;;;;;;;15.25;2.30;;;9.10;99.90;;;;;;5054550;28;20036;-72
2023/03/25 08:19:59;;;;;;;13.57;2.42;;;9.10;99.90;;;;;;5077190;28;20040;-72
2023/03/25 08:22:28;;;;;;;12.18;2.47;;;9.10;99.90;;;;;;5091338;28;20115;-72
2023/03/25 08:24:54;;;;;;;10.13;2.25;;;9.00;99.90;;;;;;5084002;28;20040;-73
2023/03/25 08:27:20;;;;;;;10.88;2.08;;;9.10;99.90;;;;;;5071159;28;20059;-72
2023/03/25 08:29:53;;;;;;;14.73;2.35;;;9.10;99.90;;;;;;5057843;28;20048;-72
2023/03/25 08:32:19;;;;;;;11.05;2.63;;;9.20;99.90;;;;;;5091537;28;20044;-73
2023/03/25 08:34:45;;;;;;;16.17;2.58;;;9.20;99.90;;;;;;5089202;28;20075;-72
2023/03/25 08:37:11;;;;;;;11.73;2.67;;;9.20;99.90;;;;;;5091566;28;20487;-73
2023/03/25 08:39:38;;;;;;;12.38;2.58;;;9.30;99.90;;;;;;5080416;28;20475;-72
2023/03/25 08:42:08;;;;;;;15.00;2.55;;;9.30;99.90;;;;;;5076582;28;20122;-73
2023/03/25 08:44:34;;;;;;;13.00;2.35;;;9.30;99.90;;;;;;5080582;28;20048;-72
2023/03/25 08:47:00;;;;;;;13.55;2.67;;;9.30;99.90;;;;;;5054167;28;20052;-72
2023/03/25 08:49:26;;;;;;;14.75;2.60;;;9.20;99.90;;;;;;5055962;28;20045;-72
2023/03/25 08:51:51;;;;;;;10.65;2.40;;;9.00;99.90;;;;;;5054179;28;20060;-72
2023/03/25 08:54:17;;;;;;;16.48;2.83;;;9.00;99.90;;;;;;5055486;28;20044;-72
2023/03/25 08:56:44;;;;;;;12.57;2.45;;;9.00;99.90;;;;;;5037761;28;20468;-72
2023/03/25 08:59:11;;;;;;;14.27;3.25;;;9.10;99.90;;;;;;5060099;28;20118;-73
2023/03/25 09:01:37;;;;;;;12.77;2.42;;;9.30;99.90;;;;;;5091101;28;20506;-72
2023/03/25 09:04:03;;;;;;;15.63;3.00;;;9.30;99.90;;;;;;5072102;28;20044;-72
2023/03/25 09:06:28;;;;;;;15.60;3.08;;;9.30;99.90;;;;;;5090769;28;20051;-72
2023/03/25 09:08:54;;;;;;;14.13;2.92;;;9.40;99.90;;;;;;5087065;28;20670;-72
2023/03/25 09:11:21;;;;;;;13.65;3.15;;;9.40;99.90;;;;;;5070579;28;20040;-72
2023/03/25 09:13:46;;;;;;;13.95;2.65;;;9.50;99.90;;;;;;5054823;28;20383;-73
2023/03/25 09:16:12;;;;;;;10.82;2.53;;;9.60;99.90;;;;;;5053679;28;20048;-72
2023/03/25 09:18:38;;;;;;;12.98;2.67;;;9.90;99.90;;;;;;5069961;28;20048;-72
2023/03/25 09:21:04;;;;;;;18.48;3.20;;;10.20;99.90;;;;;;5090316;28;20047;-72
2023/03/25 09:23:30;;;;;;;;;;;10.30;99.90;;;;;;5088384;28;20763;-72
2023/03/25 09:26:01;;;;;;;16.38;3.20;;;10.40;99.90;;;;;;5054172;28;19924;-71
2023/03/25 09:28:27;;;;;;;14.88;2.67;;;10.60;99.90;;;;;;5070134;28;20047;-73
2023/03/25 09:30:54;;;;;;;11.65;2.92;;;10.70;99.90;;;;;;5085591;28;20044;-73
2023/03/25 09:33:20;;;;;;;16.40;2.40;;;10.60;99.90;;;;;;5088691;28;20047;-73
2023/03/25 09:35:46;;;;;;;11.50;2.40;;;10.60;99.90;;;;;;5069019;28;20157;-73
2023/03/25 09:38:12;;;;;;;10.18;2.13;;;10.70;99.90;;;;;;5089963;28;20048;-72
2023/03/25 09:40:41;;;;;;;13.30;2.33;;;10.80;99.90;;;;;;5089022;28;20096;-72
2023/03/25 09:43:28;;;;;;;10.57;2.47;;;10.90;99.90;;;;;;5088202;28;20051;-73
2023/03/25 09:45:55;;;;;;;10.98;1.98;;;10.90;99.90;;;;;;5085784;28;20051;-72
2023/03/25 09:48:38;;;;;;;12.60;2.28;;;10.80;99.90;;;;;;5069752;28;20106;-73
2023/03/25 09:51:19;;;;;;;9.88;2.10;;;10.80;99.90;;;;;;5086732;28;20495;-73
2023/03/25 09:54:15;;;;;;;11.45;2.10;;;10.80;99.90;;;;;;5083216;28;20089;-73
2023/03/25 09:56:43;;;;;;;13.38;2.00;;;11.00;99.90;;;;;;5069938;28;20496;-73
2023/03/25 09:59:22;;;;;;;10.52;2.50;;;11.00;99.90;;;;;;5069547;28;20070;-73
2023/03/25 10:02:04;;;;;;;8.65;2.28;;;11.10;99.90;;;;;;5089542;28;20046;-73
2023/03/25 10:04:41;;;;;;;9.50;2.00;;;11.20;99.90;;;;;;5079765;28;20079;-73
2023/03/25 10:07:22;;;;;;;11.52;2.88;;;11.00;99.90;;;;;;5089011;28;20044;-72
2023/03/25 10:10:00;;;;;;;11.45;2.33;;;10.90;99.90;;;;;;5088440;28;20553;-73
2023/03/25 10:12:45;;;;;;;13.75;2.63;;;10.80;99.90;;;;;;5088950;28;20071;-72
2023/03/25 10:15:22;;;;;;;13.10;2.65;;;10.60;99.90;;;;;;5081370;28;20051;-72
2023/03/25 10:18:03;;;;;;;11.15;2.22;;;10.50;99.90;;;;;;5093473;28;20019;-73
2023/03/25 10:20:38;;;;;;;11.88;2.50;;;10.50;99.90;;;;;;5091896;28;20075;-73
2023/03/25 10:23:28;;;;;;;14.18;2.65;;;10.50;99.90;;;;;;5093138;28;20055;-73
2023/03/25 10:26:15;;;;;;;14.88;2.65;;;10.30;99.90;;;;;;5083931;28;20480;-73
2023/03/25 10:28:49;;;;;;;11.63;2.03;;;10.30;99.90;;;;;;5093186;28;20047;-73
2023/03/25 10:31:17;;;;;;;14.77;2.63;;;10.40;99.90;;;;;;5092332;28;20036;-73
2023/03/25 10:33:55;;;;;;;10.95;2.38;;;10.60;99.90;;;;;;5086925;28;20117;-72
2023/03/25 10:36:31;;;;;;;11.75;2.30;;;10.70;99.90;;;;;;5082491;28;20137;-72
2023/03/25 10:39:00;;;;;;;9.60;2.20;;;10.80;99.90;;;;;;5093200;28;20044;-71
2023/03/25 10:41:34;;;;;;;11.77;2.45;;;10.80;99.90;;;;;;5079994;28;20076;-72
2023/03/25 10:44:00;;;;;;;13.25;2.58;;;10.80;99.90;;;;;;5079782;28;20101;-71
2023/03/25 10:46:28;;;;;;;14.02;2.25;;;10.90;99.90;;;;;;5080966;28;20052;-72
2023/03/25 10:48:54;;;;;;;15.25;2.30;;;10.90;99.90;;;;;;5072776;28;20113;-72
2023/03/25 10:51:25;;;;;;;14.95;2.97;;;10.80;99.90;;;;;;5056698;28;20052;-72
2023/03/25 10:53:52;;;;;;;12.63;2.30;;;10.90;99.90;;;;;;5077335;28;20360;-72
2023/03/25 10:56:24;;;;;;;11.35;2.40;;;10.80;99.90;;;;;;5073375;28;20044;-72
2023/03/25 10:58:56;;;;;;;15.48;2.90;;;10.70;99.90;;;;;;5072211;28;20133;-73
2023/03/25 11:01:35;;;;;;;12.13;2.53;;;10.60;99.90;;;;;;5084033;28;20070;-73
2023/03/25 11:04:03;;;;;;;13.23;2.80;;;10.70;99.90;;;;;;5083822;28;20053;-72
2023/03/25 11:06:33;;;;;;;10.48;2.30;;;10.80;99.90;;;;;;5060303;28;20451;-72
2023/03/25 11:09:31;;;;;;;13.43;2.50;;;11.00;99.90;;;;;;5081624;28;20044;-73
2023/03/25 11:12:01;;;;;;;14.10;2.60;;;11.20;99.90;;;;;;5079899;28;20052;-72
2023/03/25 11:14:28;;;;;;;14.23;2.75;;;11.10;99.90;;;;;;5077830;28;20440;-72
2023/03/25 11:17:04;;;;;;;13.43;2.83;;;11.20;99.90;;;;;;5074704;28;20096;-71
2023/03/25 11:19:38;;;;;;;15.63;3.20;;;11.20;99.90;;;;;;5075988;28;20048;-74
2023/03/25 11:22:37;;;;;;;12.80;2.60;;;11.30;99.90;;;;;;5078123;28;20067;-74
2023/03/25 11:25:15;;;;;;;11.23;2.67;;;11.50;99.90;;;;;;5074330;28;20066;-73
2023/03/25 11:27:51;;;;;;;12.05;2.60;;;11.50;99.90;;;;;;5087155;28;20068;-73
2023/03/25 11:30:22;;;;;;;11.63;2.20;;;11.50;99.90;;;;;;5064487;28;20479;-73
2023/03/25 11:33:13;;;;;;;10.00;2.13;;;11.50;99.90;;;;;;5072953;28;20072;-73
2023/03/25 11:35:45;;;;;;;12.88;2.25;;;11.50;99.90;;;;;;5068537;28;20122;-74
2023/03/25 11:38:18;;;;;;;11.43;2.10;;;11.50;99.90;;;;;;5091637;28;20043;-74
2023/03/25 11:40:54;;;;;;;9.55;2.13;;;11.40;95.40;;;;;;5089119;28;20048;-74
2023/03/25 11:43:25;;;;;;;10.82;2.28;;;11.40;99.90;;;;;;5083296;28;20047;-73
2023/03/25 11:45:52;;;;;;;8.35;2.22;;;11.50;99.90;;;;;;5076068;28;20037;-73
2023/03/25 11:48:21;;;;;;;7.55;2.00;;;11.50;99.90;;;;;;5082067;28;20032;-74
2023/03/25 11:50:51;;;;;;;8.30;1.70;;;11.60;99.90;;;;;;5065296;28;20159;-74
2023/03/25 11:53:18;;;;;;;9.18;1.83;;;11.60;92.60;;;;;;5080217;28;20117;-74
2023/03/25 11:55:48;;;;;;;9.40;2.33;;;11.50;88.70;;;;;;5080443;28;20059;-72
2023/03/25 11:58:17;;;;;;;9.82;2.33;;;11.60;77.80;;;;;;5079401;28;20055;-72
2023/03/25 12:00:58;;;;;;;11.75;2.30;;;11.60;94.50;;;;;;5081580;28;20119;-73
2023/03/25 12:03:29;;;;;;;8.77;2.00;;;11.70;98.30;;;;;;5077167;28;20446;-73
2023/03/25 12:06:06;;;;;;;10.30;2.13;;;11.70;90.00;;;;;;5079524;28;20388;-72
2023/03/25 12:08:55;;;;;;;9.82;2.08;;;11.70;87.70;;;;;;5077610;28;20733;-73
2023/03/25 12:11:34;;;;;;;10.10;2.08;;;12.10;73.50;;;;;;5077607;28;20483;-73
2023/03/25 12:14:37;;;;;;;9.25;2.05;;;12.40;52.30;;;;;;5079059;28;20174;-73
2023/03/25 12:17:24;;;;;;;9.45;2.20;;;12.80;51.40;;;;;;5062972;28;20406;-73
2023/03/25 12:20:13;;;;;;;7.87;1.80;;;13.10;12.50;;;;;;5085224;28;20047;-72
2023/03/25 12:23:01;;;;;;;11.15;2.17;;;13.10;9.60;;;;;;5079319;28;20052;-71
2023/03/25 12:25:45;;;;;;;6.68;1.88;;;12.90;1.00;;;;;;5073444;28;20047;-70
2023/03/25 12:28:17;;;;;;;9.63;2.00;;;12.80;1.00;;;;;;5075710;28;20487;-71
2023/03/25 12:31:03;;;;;;;12.18;2.15;;;12.80;1.00;;;;;;5071366;28;20048;-72
2023/03/25 12:33:48;;;;;;;7.57;1.60;;;12.70;1.00;;;;;;5085439;28;20081;-71
2023/03/25 12:36:22;;;;;;;6.25;1.75;;;12.90;1.00;;;;;;5071120;28;20066;-72
2023/03/25 12:39:18;;;;;;;8.80;1.70;;;13.40;1.00;;;;;;5078475;28;20506;-71
2023/03/25 12:42:11;;;;;;;11.50;2.15;;;13.40;1.00;;;;;;5077993;28;20039;-71
2023/03/25 12:44:49;;;;;;;7.32;1.88;;;13.20;1.00;;;;;;5083365;28;20097;-72
2023/03/25 12:47:47;;;;;;;9.07;2.50;;;12.90;1.00;;;;;;5085050;28;20067;-71
2023/03/25 12:50:16;;;;;;;8.23;1.85;;;12.60;1.00;;;;;;5079060;28;20063;-71
2023/03/25 12:53:18;;;;;;;7.35;1.90;;;12.50;3.90;;;;;;5081026;28;20051;-71
2023/03/25 12:56:20;;;;;;;9.52;1.95;;;12.20;6.40;;;;;;5087544;28;20040;-71
2023/03/25 12:59:17;;;;;;;10.32;2.10;;;11.90;27.60;;;;;;5078873;28;20389;-71
2023/03/25 13:01:50;;;;;;;10.32;1.90;;;11.80;42.10;;;;;;5060017;28;20044;-72
2023/03/25 13:04:42;;;;;;;11.30;2.10;;;11.70;49.00;;;;;;5081186;28;20090;-71
2023/03/25 13:07:14;;;;;;;6.63;1.52;;;11.60;65.10;;;;;;5073050;28;20056;-71
2023/03/25 13:10:07;;;;;;;7.65;2.00;;;11.10;93.60;;;;;;5081039;28;20663;-70
2023/03/25 13:12:53;;;;;;;11.60;2.20;;;10.80;99.90;;;;;;5068277;28;20392;-71